sensor_id;sensor_type;location;lat;lon;timestamp;P1;durP1;ratioP1;P2;durP2;ratioP2
45522;SDS011;31254;51.680;5.394;2022-10-23T00:01:40;32.53;;;18.83;;
45522;SDS011;31254;51.680;5.394;2022-10-23T00:04:16;31.80;;;19.55;;
45522;SDS011;31254;51.680;5.394;2022-10-23T00:06:44;34.45;;;19.42;;
45522;SDS011;31254;51.680;5.394;2022-10-23T00:09:13;37.72;;;20.02;;
45522;SDS011;31254;51.680;5.394;2022-10-23T00:11:43;35.65;;;20.83;;
45522;SDS011;31254;51.680;5.394;2022-10-23T00:14:13;35.05;;;21.02;;
45522;SDS011;31254;51.680;5.394;2022-10-23T00:16:41;29.17;;;20.52;;
45522;SDS011;31254;51.680;5.394;2022-10-23T00:19:07;34.10;;;20.23;;
45522;SDS011;31254;51.680;5.394;2022-10-23T00:21:34;24.85;;;17.30;;
45522;SDS011;31254;51.680;5.394;2022-10-23T00:24:05;26.27;;;17.08;;
45522;SDS011;31254;51.680;5.394;2022-10-23T00:26:37;34.15;;;16.98;;
45522;SDS011;31254;51.680;5.394;2022-10-23T00:29:06;22.23;;;14.05;;
45522;SDS011;31254;51.680;5.394;2022-10-23T00:31:33;23.70;;;13.48;;
45522;SDS011;31254;51.680;5.394;2022-10-23T00:34:00;24.48;;;12.30;;
45522;SDS011;31254;51.680;5.394;2022-10-23T00:36:27;22.77;;;10.80;;
45522;SDS011;31254;51.680;5.394;2022-10-23T00:38:54;18.95;;;9.77;;
45522;SDS011;31254;51.680;5.394;2022-10-23T00:41:23;14.38;;;8.82;;
45522;SDS011;31254;51.680;5.394;2022-10-23T00:43:57;11.18;;;8.13;;
45522;SDS011;31254;51.680;5.394;2022-10-23T00:46:27;15.02;;;8.52;;
45522;SDS011;31254;51.680;5.394;2022-10-23T00:48:54;16.33;;;8.48;;
45522;SDS011;31254;51.680;5.394;2022-10-23T00:51:21;12.15;;;7.80;;
45522;SDS011;31254;51.680;5.394;2022-10-23T00:53:51;10.93;;;7.28;;
45522;SDS011;31254;51.680;5.394;2022-10-23T00:56:52;11.68;;;6.70;;
45522;SDS011;31254;51.680;5.394;2022-10-23T00:59:23;12.60;;;6.97;;
45522;SDS011;31254;51.680;5.394;2022-10-23T01:01:50;13.75;;;6.80;;
45522;SDS011;31254;51.680;5.394;2022-10-23T01:04:17;18.35;;;6.50;;
45522;SDS011;31254;51.680;5.394;2022-10-23T01:09:19;13.63;;;6.35;;
45522;SDS011;31254;51.680;5.394;2022-10-23T01:17:27;15.15;;;6.15;;
45522;SDS011;31254;51.680;5.394;2022-10-23T01:20:06;12.65;;;6.30;;
45522;SDS011;31254;51.680;5.394;2022-10-23T01:27:56;11.25;;;5.50;;
45522;SDS011;31254;51.680;5.394;2022-10-23T01:30:30;8.57;;;5.22;;
45522;SDS011;31254;51.680;5.394;2022-10-23T01:33:07;13.32;;;5.60;;
45522;SDS011;31254;51.680;5.394;2022-10-23T01:35:49;11.30;;;5.00;;
45522;SDS011;31254;51.680;5.394;2022-10-23T01:46:40;12.77;;;5.78;;
45522;SDS011;31254;51.680;5.394;2022-10-23T01:49:10;12.13;;;5.15;;
45522;SDS011;31254;51.680;5.394;2022-10-23T01:51:38;11.80;;;4.70;;
45522;SDS011;31254;51.680;5.394;2022-10-23T01:54:09;14.15;;;5.35;;
45522;SDS011;31254;51.680;5.394;2022-10-23T01:56:40;13.25;;;5.20;;
45522;SDS011;31254;51.680;5.394;2022-10-23T01:59:10;11.88;;;5.78;;
45522;SDS011;31254;51.680;5.394;2022-10-23T02:01:45;13.73;;;5.38;;
45522;SDS011;31254;51.680;5.394;2022-10-23T02:04:22;11.68;;;5.93;;
45522;SDS011;31254;51.680;5.394;2022-10-23T02:06:53;12.65;;;5.45;;
45522;SDS011;31254;51.680;5.394;2022-10-23T02:09:20;10.70;;;4.65;;
45522;SDS011;31254;51.680;5.394;2022-10-23T02:11:51;10.85;;;4.32;;
45522;SDS011;31254;51.680;5.394;2022-10-23T02:20:22;11.45;;;5.25;;
45522;SDS011;31254;51.680;5.394;2022-10-23T02:23:00;14.48;;;5.03;;
45522;SDS011;31254;51.680;5.394;2022-10-23T02:25:43;9.52;;;4.75;;
45522;SDS011;31254;51.680;5.394;2022-10-23T02:28:17;13.35;;;5.75;;
45522;SDS011;31254;51.680;5.394;2022-10-23T02:30:49;10.20;;;5.00;;
45522;SDS011;31254;51.680;5.394;2022-10-23T02:33:16;10.82;;;4.78;;
45522;SDS011;31254;51.680;5.394;2022-10-23T02:35:44;9.23;;;4.72;;
45522;SDS011;31254;51.680;5.394;2022-10-23T02:38:31;12.48;;;5.65;;
45522;SDS011;31254;51.680;5.394;2022-10-23T02:49:04;12.60;;;4.93;;
45522;SDS011;31254;51.680;5.394;2022-10-23T02:54:24;8.52;;;5.13;;
45522;SDS011;31254;51.680;5.394;2022-10-23T02:56:58;17.70;;;6.15;;
45522;SDS011;31254;51.680;5.394;2022-10-23T02:59:35;10.27;;;5.20;;
45522;SDS011;31254;51.680;5.394;2022-10-23T03:04:47;12.43;;;5.28;;
45522;SDS011;31254;51.680;5.394;2022-10-23T03:07:15;14.75;;;6.35;;
45522;SDS011;31254;51.680;5.394;2022-10-23T03:09:44;20.15;;;5.97;;
45522;SDS011;31254;51.680;5.394;2022-10-23T03:12:12;16.80;;;5.95;;
45522;SDS011;31254;51.680;5.394;2022-10-23T03:14:39;15.82;;;5.88;;
45522;SDS011;31254;51.680;5.394;2022-10-23T03:17:08;14.90;;;6.05;;
45522;SDS011;31254;51.680;5.394;2022-10-23T03:19:35;13.13;;;5.78;;
45522;SDS011;31254;51.680;5.394;2022-10-23T03:22:04;17.75;;;6.30;;
45522;SDS011;31254;51.680;5.394;2022-10-23T03:24:30;14.00;;;5.60;;
45522;SDS011;31254;51.680;5.394;2022-10-23T03:26:57;14.55;;;6.38;;
45522;SDS011;31254;51.680;5.394;2022-10-23T03:29:24;11.73;;;5.80;;
45522;SDS011;31254;51.680;5.394;2022-10-23T03:31:51;13.88;;;6.28;;
45522;SDS011;31254;51.680;5.394;2022-10-23T03:34:18;12.63;;;6.47;;
45522;SDS011;31254;51.680;5.394;2022-10-23T03:36:45;13.88;;;6.10;;
45522;SDS011;31254;51.680;5.394;2022-10-23T03:39:11;17.10;;;6.40;;
45522;SDS011;31254;51.680;5.394;2022-10-23T03:41:43;15.70;;;6.40;;
45522;SDS011;31254;51.680;5.394;2022-10-23T03:44:13;15.82;;;6.70;;
45522;SDS011;31254;51.680;5.394;2022-10-23T03:46:40;13.20;;;6.40;;
45522;SDS011;31254;51.680;5.394;2022-10-23T03:49:06;11.45;;;6.75;;
45522;SDS011;31254;51.680;5.394;2022-10-23T03:51:36;16.48;;;6.32;;
45522;SDS011;31254;51.680;5.394;2022-10-23T03:54:09;10.65;;;5.70;;
45522;SDS011;31254;51.680;5.394;2022-10-23T03:56:36;14.20;;;6.25;;
45522;SDS011;31254;51.680;5.394;2022-10-23T03:59:03;12.07;;;6.10;;
45522;SDS011;31254;51.680;5.394;2022-10-23T04:01:30;11.82;;;5.55;;
45522;SDS011;31254;51.680;5.394;2022-10-23T04:03:56;15.27;;;5.75;;
45522;SDS011;31254;51.680;5.394;2022-10-23T04:06:23;13.00;;;6.53;;
45522;SDS011;31254;51.680;5.394;2022-10-23T04:08:50;14.70;;;6.50;;
45522;SDS011;31254;51.680;5.394;2022-10-23T04:11:17;11.43;;;6.13;;
45522;SDS011;31254;51.680;5.394;2022-10-23T04:13:43;12.68;;;5.95;;
45522;SDS011;31254;51.680;5.394;2022-10-23T04:16:10;20.30;;;6.38;;
45522;SDS011;31254;51.680;5.394;2022-10-23T04:18:38;11.05;;;5.93;;
45522;SDS011;31254;51.680;5.394;2022-10-23T04:21:06;15.25;;;5.93;;
45522;SDS011;31254;51.680;5.394;2022-10-23T04:23:32;19.27;;;6.18;;
45522;SDS011;31254;51.680;5.394;2022-10-23T04:25:59;14.00;;;5.45;;
45522;SDS011;31254;51.680;5.394;2022-10-23T04:28:26;16.38;;;5.32;;
45522;SDS011;31254;51.680;5.394;2022-10-23T04:30:53;12.60;;;5.50;;
45522;SDS011;31254;51.680;5.394;2022-10-23T04:33:23;12.52;;;5.60;;
45522;SDS011;31254;51.680;5.394;2022-10-23T04:35:52;11.80;;;5.50;;
45522;SDS011;31254;51.680;5.394;2022-10-23T04:38:19;12.38;;;4.90;;
45522;SDS011;31254;51.680;5.394;2022-10-23T04:40:46;8.75;;;5.13;;
45522;SDS011;31254;51.680;5.394;2022-10-23T04:43:12;12.50;;;5.35;;
45522;SDS011;31254;51.680;5.394;2022-10-23T04:45:39;13.30;;;5.43;;
45522;SDS011;31254;51.680;5.394;2022-10-23T04:48:08;12.85;;;4.90;;
45522;SDS011;31254;51.680;5.394;2022-10-23T04:50:37;10.00;;;5.53;;
45522;SDS011;31254;51.680;5.394;2022-10-23T04:53:03;13.68;;;5.15;;
45522;SDS011;31254;51.680;5.394;2022-10-23T04:55:32;10.75;;;5.30;;
45522;SDS011;31254;51.680;5.394;2022-10-23T04:58:04;11.65;;;5.22;;
45522;SDS011;31254;51.680;5.394;2022-10-23T05:00:30;10.15;;;4.97;;
45522;SDS011;31254;51.680;5.394;2022-10-23T05:02:57;10.30;;;5.50;;
45522;SDS011;31254;51.680;5.394;2022-10-23T05:05:29;11.38;;;5.63;;
45522;SDS011;31254;51.680;5.394;2022-10-23T05:07:58;9.57;;;5.18;;
45522;SDS011;31254;51.680;5.394;2022-10-23T05:10:25;14.15;;;5.38;;
45522;SDS011;31254;51.680;5.394;2022-10-23T05:12:51;10.27;;;5.55;;
45522;SDS011;31254;51.680;5.394;2022-10-23T05:15:18;12.48;;;5.38;;
45522;SDS011;31254;51.680;5.394;2022-10-23T05:17:45;11.70;;;4.88;;
45522;SDS011;31254;51.680;5.394;2022-10-23T05:20:17;13.32;;;5.40;;
45522;SDS011;31254;51.680;5.394;2022-10-23T05:22:45;14.45;;;5.32;;
45522;SDS011;31254;51.680;5.394;2022-10-23T05:25:16;13.35;;;5.50;;
45522;SDS011;31254;51.680;5.394;2022-10-23T05:27:43;14.70;;;5.35;;
45522;SDS011;31254;51.680;5.394;2022-10-23T05:30:11;8.80;;;4.78;;
45522;SDS011;31254;51.680;5.394;2022-10-23T05:32:38;16.10;;;5.03;;
45522;SDS011;31254;51.680;5.394;2022-10-23T05:35:07;11.57;;;5.22;;
45522;SDS011;31254;51.680;5.394;2022-10-23T05:37:37;7.32;;;4.90;;
45522;SDS011;31254;51.680;5.394;2022-10-23T05:40:06;11.45;;;5.32;;
45522;SDS011;31254;51.680;5.394;2022-10-23T05:42:34;12.95;;;5.50;;
45522;SDS011;31254;51.680;5.394;2022-10-23T05:45:06;13.55;;;5.30;;
45522;SDS011;31254;51.680;5.394;2022-10-23T05:47:36;10.82;;;5.28;;
45522;SDS011;31254;51.680;5.394;2022-10-23T05:50:03;11.90;;;4.93;;
45522;SDS011;31254;51.680;5.394;2022-10-23T05:52:30;9.55;;;4.90;;
45522;SDS011;31254;51.680;5.394;2022-10-23T05:54:56;10.90;;;5.25;;
45522;SDS011;31254;51.680;5.394;2022-10-23T05:57:23;8.48;;;4.40;;
45522;SDS011;31254;51.680;5.394;2022-10-23T05:59:50;7.43;;;5.18;;
45522;SDS011;31254;51.680;5.394;2022-10-23T06:02:16;13.10;;;4.97;;
45522;SDS011;31254;51.680;5.394;2022-10-23T06:04:43;15.82;;;5.68;;
45522;SDS011;31254;51.680;5.394;2022-10-23T06:07:10;9.55;;;5.13;;
45522;SDS011;31254;51.680;5.394;2022-10-23T06:09:37;12.27;;;4.70;;
45522;SDS011;31254;51.680;5.394;2022-10-23T06:12:04;13.50;;;4.60;;
45522;SDS011;31254;51.680;5.394;2022-10-23T06:14:34;14.45;;;5.60;;
45522;SDS011;31254;51.680;5.394;2022-10-23T06:17:00;10.73;;;5.05;;
45522;SDS011;31254;51.680;5.394;2022-10-23T06:19:27;9.02;;;5.07;;
45522;SDS011;31254;51.680;5.394;2022-10-23T06:21:54;9.75;;;5.20;;
45522;SDS011;31254;51.680;5.394;2022-10-23T06:24:20;11.60;;;5.30;;
45522;SDS011;31254;51.680;5.394;2022-10-23T06:26:47;11.38;;;5.35;;
45522;SDS011;31254;51.680;5.394;2022-10-23T06:29:14;16.23;;;5.60;;
45522;SDS011;31254;51.680;5.394;2022-10-23T06:31:41;12.93;;;5.05;;
45522;SDS011;31254;51.680;5.394;2022-10-23T06:34:10;9.52;;;4.63;;
45522;SDS011;31254;51.680;5.394;2022-10-23T06:36:37;12.07;;;5.32;;
45522;SDS011;31254;51.680;5.394;2022-10-23T06:39:04;14.20;;;5.43;;
45522;SDS011;31254;51.680;5.394;2022-10-23T06:41:32;17.33;;;5.57;;
45522;SDS011;31254;51.680;5.394;2022-10-23T06:44:01;10.23;;;4.95;;
45522;SDS011;31254;51.680;5.394;2022-10-23T06:46:28;18.95;;;5.20;;
45522;SDS011;31254;51.680;5.394;2022-10-23T06:48:58;13.45;;;5.32;;
45522;SDS011;31254;51.680;5.394;2022-10-23T06:51:27;9.77;;;4.57;;
45522;SDS011;31254;51.680;5.394;2022-10-23T06:53:55;9.88;;;5.05;;
45522;SDS011;31254;51.680;5.394;2022-10-23T06:56:22;9.82;;;5.20;;
45522;SDS011;31254;51.680;5.394;2022-10-23T06:58:50;9.60;;;5.45;;
45522;SDS011;31254;51.680;5.394;2022-10-23T07:01:17;16.23;;;5.55;;
45522;SDS011;31254;51.680;5.394;2022-10-23T07:03:44;10.88;;;5.68;;
45522;SDS011;31254;51.680;5.394;2022-10-23T07:06:16;9.15;;;5.13;;
45522;SDS011;31254;51.680;5.394;2022-10-23T07:08:43;15.15;;;5.28;;
45522;SDS011;31254;51.680;5.394;2022-10-23T07:11:10;13.23;;;5.75;;
45522;SDS011;31254;51.680;5.394;2022-10-23T07:13:39;15.80;;;5.85;;
45522;SDS011;31254;51.680;5.394;2022-10-23T07:16:11;13.27;;;6.00;;
45522;SDS011;31254;51.680;5.394;2022-10-23T07:18:42;10.85;;;5.18;;
45522;SDS011;31254;51.680;5.394;2022-10-23T07:21:09;14.48;;;6.05;;
45522;SDS011;31254;51.680;5.394;2022-10-23T07:23:37;12.25;;;5.88;;
45522;SDS011;31254;51.680;5.394;2022-10-23T07:26:08;13.10;;;5.30;;
45522;SDS011;31254;51.680;5.394;2022-10-23T07:28:43;21.33;;;5.90;;
45522;SDS011;31254;51.680;5.394;2022-10-23T07:31:11;11.10;;;5.82;;
45522;SDS011;31254;51.680;5.394;2022-10-23T07:33:38;9.68;;;5.38;;
45522;SDS011;31254;51.680;5.394;2022-10-23T07:36:06;11.68;;;5.78;;
45522;SDS011;31254;51.680;5.394;2022-10-23T07:38:33;13.88;;;6.00;;
45522;SDS011;31254;51.680;5.394;2022-10-23T07:41:03;11.27;;;5.60;;
45522;SDS011;31254;51.680;5.394;2022-10-23T07:43:34;15.60;;;5.68;;
45522;SDS011;31254;51.680;5.394;2022-10-23T07:46:00;12.98;;;5.78;;
45522;SDS011;31254;51.680;5.394;2022-10-23T07:48:27;12.25;;;5.45;;
45522;SDS011;31254;51.680;5.394;2022-10-23T07:50:58;10.20;;;5.82;;
45522;SDS011;31254;51.680;5.394;2022-10-23T07:53:26;9.02;;;5.07;;
45522;SDS011;31254;51.680;5.394;2022-10-23T07:55:57;12.20;;;5.82;;
45522;SDS011;31254;51.680;5.394;2022-10-23T07:58:28;10.30;;;5.20;;
45522;SDS011;31254;51.680;5.394;2022-10-23T08:00:56;10.55;;;5.53;;
45522;SDS011;31254;51.680;5.394;2022-10-23T08:03:24;12.30;;;5.55;;
45522;SDS011;31254;51.680;5.394;2022-10-23T08:05:58;12.82;;;5.20;;
45522;SDS011;31254;51.680;5.394;2022-10-23T08:08:25;10.88;;;5.07;;
45522;SDS011;31254;51.680;5.394;2022-10-23T08:10:53;13.68;;;4.97;;
45522;SDS011;31254;51.680;5.394;2022-10-23T08:13:22;16.30;;;5.13;;
45522;SDS011;31254;51.680;5.394;2022-10-23T08:15:52;10.75;;;5.32;;
45522;SDS011;31254;51.680;5.394;2022-10-23T08:18:19;12.68;;;5.35;;
45522;SDS011;31254;51.680;5.394;2022-10-23T08:20:48;8.38;;;4.88;;
45522;SDS011;31254;51.680;5.394;2022-10-23T08:23:18;12.50;;;4.70;;
45522;SDS011;31254;51.680;5.394;2022-10-23T08:25:45;12.38;;;4.80;;
45522;SDS011;31254;51.680;5.394;2022-10-23T08:28:12;7.60;;;4.60;;
45522;SDS011;31254;51.680;5.394;2022-10-23T08:30:42;9.55;;;4.20;;
45522;SDS011;31254;51.680;5.394;2022-10-23T08:33:08;9.52;;;4.75;;
45522;SDS011;31254;51.680;5.394;2022-10-23T08:35:37;8.68;;;4.57;;
45522;SDS011;31254;51.680;5.394;2022-10-23T08:38:05;8.30;;;4.10;;
45522;SDS011;31254;51.680;5.394;2022-10-23T08:40:33;10.50;;;4.70;;
45522;SDS011;31254;51.680;5.394;2022-10-23T08:45:41;7.88;;;4.50;;
45522;SDS011;31254;51.680;5.394;2022-10-23T08:48:23;13.68;;;4.78;;
45522;SDS011;31254;51.680;5.394;2022-10-23T08:51:04;7.68;;;4.85;;
45522;SDS011;31254;51.680;5.394;2022-10-23T08:53:49;9.30;;;4.47;;
45522;SDS011;31254;51.680;5.394;2022-10-23T08:56:23;13.02;;;4.60;;
45522;SDS011;31254;51.680;5.394;2022-10-23T09:04:12;7.57;;;4.63;;
45522;SDS011;31254;51.680;5.394;2022-10-23T09:09:15;7.00;;;4.50;;
45522;SDS011;31254;51.680;5.394;2022-10-23T09:14:41;8.93;;;4.53;;
45522;SDS011;31254;51.680;5.394;2022-10-23T09:17:32;8.35;;;4.82;;
45522;SDS011;31254;51.680;5.394;2022-10-23T09:20:19;11.35;;;4.88;;
45522;SDS011;31254;51.680;5.394;2022-10-23T09:22:56;9.73;;;4.75;;
45522;SDS011;31254;51.680;5.394;2022-10-23T09:25:27;8.75;;;4.78;;
45522;SDS011;31254;51.680;5.394;2022-10-23T09:27:56;8.48;;;5.18;;
45522;SDS011;31254;51.680;5.394;2022-10-23T09:30:37;11.40;;;5.15;;
45522;SDS011;31254;51.680;5.394;2022-10-23T09:33:16;11.10;;;4.70;;
45522;SDS011;31254;51.680;5.394;2022-10-23T09:38:47;12.15;;;4.60;;
45522;SDS011;31254;51.680;5.394;2022-10-23T09:41:18;10.95;;;3.75;;
45522;SDS011;31254;51.680;5.394;2022-10-23T09:46:43;8.45;;;4.10;;
45522;SDS011;31254;51.680;5.394;2022-10-23T09:49:25;6.32;;;3.72;;
45522;SDS011;31254;51.680;5.394;2022-10-23T09:51:57;6.68;;;3.85;;
45522;SDS011;31254;51.680;5.394;2022-10-23T09:54:53;7.20;;;3.58;;
45522;SDS011;31254;51.680;5.394;2022-10-23T09:57:31;6.43;;;3.47;;
45522;SDS011;31254;51.680;5.394;2022-10-23T10:02:40;10.75;;;4.45;;
45522;SDS011;31254;51.680;5.394;2022-10-23T10:10:53;8.20;;;3.65;;
45522;SDS011;31254;51.680;5.394;2022-10-23T10:21:29;7.68;;;3.88;;
45522;SDS011;31254;51.680;5.394;2022-10-23T10:32:34;6.90;;;3.45;;
45522;SDS011;31254;51.680;5.394;2022-10-23T10:35:13;9.90;;;3.25;;
45522;SDS011;31254;51.680;5.394;2022-10-23T10:43:56;11.30;;;3.80;;
45522;SDS011;31254;51.680;5.394;2022-10-23T10:52:21;7.38;;;3.38;;
45522;SDS011;31254;51.680;5.394;2022-10-23T10:55:16;5.13;;;3.40;;
45522;SDS011;31254;51.680;5.394;2022-10-23T10:57:49;7.38;;;3.05;;
45522;SDS011;31254;51.680;5.394;2022-10-23T11:00:25;8.65;;;3.20;;
45522;SDS011;31254;51.680;5.394;2022-10-23T11:05:46;7.00;;;3.55;;
45522;SDS011;31254;51.680;5.394;2022-10-23T11:08:38;9.27;;;3.47;;
45522;SDS011;31254;51.680;5.394;2022-10-23T11:11:29;6.45;;;3.22;;
45522;SDS011;31254;51.680;5.394;2022-10-23T11:14:01;5.15;;;3.05;;
45522;SDS011;31254;51.680;5.394;2022-10-23T11:16:30;5.57;;;3.28;;
45522;SDS011;31254;51.680;5.394;2022-10-23T11:19:13;7.72;;;3.63;;
45522;SDS011;31254;51.680;5.394;2022-10-23T11:32:28;6.50;;;3.70;;
45522;SDS011;31254;51.680;5.394;2022-10-23T11:35:13;13.05;;;3.55;;
45522;SDS011;31254;51.680;5.394;2022-10-23T11:37:58;7.20;;;2.88;;
45522;SDS011;31254;51.680;5.394;2022-10-23T11:40:32;8.30;;;3.47;;
45522;SDS011;31254;51.680;5.394;2022-10-23T11:42:59;7.10;;;3.15;;
45522;SDS011;31254;51.680;5.394;2022-10-23T11:48:02;8.93;;;2.92;;
45522;SDS011;31254;51.680;5.394;2022-10-23T11:55:57;6.78;;;2.97;;
45522;SDS011;31254;51.680;5.394;2022-10-23T12:01:41;10.43;;;3.03;;
45522;SDS011;31254;51.680;5.394;2022-10-23T12:06:47;7.78;;;2.50;;
45522;SDS011;31254;51.680;5.394;2022-10-23T12:12:03;7.15;;;2.65;;
45522;SDS011;31254;51.680;5.394;2022-10-23T12:17:17;8.57;;;2.28;;
45522;SDS011;31254;51.680;5.394;2022-10-23T12:20:03;7.68;;;2.10;;
45522;SDS011;31254;51.680;5.394;2022-10-23T12:34:19;4.15;;;2.00;;
45522;SDS011;31254;51.680;5.394;2022-10-23T12:37:00;6.85;;;2.47;;
45522;SDS011;31254;51.680;5.394;2022-10-23T12:39:34;7.75;;;3.33;;
45522;SDS011;31254;51.680;5.394;2022-10-23T12:42:05;7.30;;;2.47;;
45522;SDS011;31254;51.680;5.394;2022-10-23T12:44:41;8.82;;;2.53;;
45522;SDS011;31254;51.680;5.394;2022-10-23T12:47:10;7.25;;;2.45;;
45522;SDS011;31254;51.680;5.394;2022-10-23T12:49:47;5.28;;;2.50;;
45522;SDS011;31254;51.680;5.394;2022-10-23T12:52:16;5.60;;;2.80;;
45522;SDS011;31254;51.680;5.394;2022-10-23T12:54:47;4.13;;;2.10;;
45522;SDS011;31254;51.680;5.394;2022-10-23T12:59:46;6.93;;;2.40;;
45522;SDS011;31254;51.680;5.394;2022-10-23T13:04:45;5.35;;;2.40;;
45522;SDS011;31254;51.680;5.394;2022-10-23T13:07:16;8.90;;;2.42;;
45522;SDS011;31254;51.680;5.394;2022-10-23T13:09:46;6.28;;;2.28;;
45522;SDS011;31254;51.680;5.394;2022-10-23T13:12:21;7.00;;;2.22;;
45522;SDS011;31254;51.680;5.394;2022-10-23T13:14:55;8.48;;;2.20;;
45522;SDS011;31254;51.680;5.394;2022-10-23T13:17:44;7.65;;;2.17;;
45522;SDS011;31254;51.680;5.394;2022-10-23T13:22:43;6.82;;;2.00;;
45522;SDS011;31254;51.680;5.394;2022-10-23T13:25:50;4.75;;;1.98;;
45522;SDS011;31254;51.680;5.394;2022-10-23T13:30:36;5.72;;;2.20;;
45522;SDS011;31254;51.680;5.394;2022-10-23T13:33:21;5.70;;;2.15;;
45522;SDS011;31254;51.680;5.394;2022-10-23T13:35:59;9.57;;;2.30;;
45522;SDS011;31254;51.680;5.394;2022-10-23T13:38:30;7.47;;;2.10;;
45522;SDS011;31254;51.680;5.394;2022-10-23T13:40:59;11.45;;;2.00;;
45522;SDS011;31254;51.680;5.394;2022-10-23T13:43:27;11.13;;;2.45;;
45522;SDS011;31254;51.680;5.394;2022-10-23T13:45:56;3.58;;;1.88;;
45522;SDS011;31254;51.680;5.394;2022-10-23T13:48:24;11.13;;;2.03;;
45522;SDS011;31254;51.680;5.394;2022-10-23T13:50:52;5.95;;;1.90;;
45522;SDS011;31254;51.680;5.394;2022-10-23T13:53:20;6.63;;;2.00;;
45522;SDS011;31254;51.680;5.394;2022-10-23T13:55:47;5.55;;;1.70;;
45522;SDS011;31254;51.680;5.394;2022-10-23T13:58:23;8.20;;;1.98;;
45522;SDS011;31254;51.680;5.394;2022-10-23T14:00:50;5.47;;;1.83;;
45522;SDS011;31254;51.680;5.394;2022-10-23T14:03:18;7.97;;;1.75;;
45522;SDS011;31254;51.680;5.394;2022-10-23T14:05:50;9.45;;;1.88;;
45522;SDS011;31254;51.680;5.394;2022-10-23T14:08:17;7.78;;;1.85;;
45522;SDS011;31254;51.680;5.394;2022-10-23T14:10:45;3.38;;;1.77;;
45522;SDS011;31254;51.680;5.394;2022-10-23T14:13:12;6.53;;;1.70;;
45522;SDS011;31254;51.680;5.394;2022-10-23T14:15:41;5.25;;;2.40;;
45522;SDS011;31254;51.680;5.394;2022-10-23T14:18:08;6.35;;;1.95;;
45522;SDS011;31254;51.680;5.394;2022-10-23T14:20:36;8.10;;;2.03;;
45522;SDS011;31254;51.680;5.394;2022-10-23T14:23:04;11.25;;;2.08;;
45522;SDS011;31254;51.680;5.394;2022-10-23T14:25:31;5.65;;;2.05;;
45522;SDS011;31254;51.680;5.394;2022-10-23T14:28:02;8.07;;;2.25;;
45522;SDS011;31254;51.680;5.394;2022-10-23T14:30:31;6.47;;;1.83;;
45522;SDS011;31254;51.680;5.394;2022-10-23T14:33:03;4.25;;;2.03;;
45522;SDS011;31254;51.680;5.394;2022-10-23T14:35:30;6.38;;;2.08;;
45522;SDS011;31254;51.680;5.394;2022-10-23T14:37:56;4.55;;;1.98;;
45522;SDS011;31254;51.680;5.394;2022-10-23T14:40:23;5.75;;;2.00;;
45522;SDS011;31254;51.680;5.394;2022-10-23T14:42:53;8.65;;;2.10;;
45522;SDS011;31254;51.680;5.394;2022-10-23T14:45:19;2.83;;;2.00;;
45522;SDS011;31254;51.680;5.394;2022-10-23T14:47:46;8.55;;;2.20;;
45522;SDS011;31254;51.680;5.394;2022-10-23T14:50:13;7.60;;;2.72;;
45522;SDS011;31254;51.680;5.394;2022-10-23T14:52:41;8.13;;;2.33;;
45522;SDS011;31254;51.680;5.394;2022-10-23T14:55:07;4.90;;;2.08;;
45522;SDS011;31254;51.680;5.394;2022-10-23T14:57:34;8.32;;;2.20;;
45522;SDS011;31254;51.680;5.394;2022-10-23T15:00:01;6.15;;;2.22;;
45522;SDS011;31254;51.680;5.394;2022-10-23T15:02:29;5.07;;;2.13;;
45522;SDS011;31254;51.680;5.394;2022-10-23T15:04:56;8.07;;;2.40;;
45522;SDS011;31254;51.680;5.394;2022-10-23T15:07:23;7.10;;;2.28;;
45522;SDS011;31254;51.680;5.394;2022-10-23T15:09:52;5.10;;;2.33;;
45522;SDS011;31254;51.680;5.394;2022-10-23T15:12:18;13.18;;;3.05;;
45522;SDS011;31254;51.680;5.394;2022-10-23T15:14:45;7.85;;;2.50;;
45522;SDS011;31254;51.680;5.394;2022-10-23T15:17:12;8.85;;;2.28;;
45522;SDS011;31254;51.680;5.394;2022-10-23T15:19:41;11.32;;;2.67;;
45522;SDS011;31254;51.680;5.394;2022-10-23T15:22:10;7.82;;;2.85;;
45522;SDS011;31254;51.680;5.394;2022-10-23T15:24:40;6.93;;;2.40;;
45522;SDS011;31254;51.680;5.394;2022-10-23T15:27:06;7.25;;;2.35;;
45522;SDS011;31254;51.680;5.394;2022-10-23T15:29:34;5.93;;;2.60;;
45522;SDS011;31254;51.680;5.394;2022-10-23T15:32:01;8.82;;;2.53;;
45522;SDS011;31254;51.680;5.394;2022-10-23T15:34:30;11.10;;;5.78;;
45522;SDS011;31254;51.680;5.394;2022-10-23T15:37:00;7.75;;;4.65;;
45522;SDS011;31254;51.680;5.394;2022-10-23T15:39:30;11.30;;;3.80;;
45522;SDS011;31254;51.680;5.394;2022-10-23T15:42:02;8.75;;;2.92;;
45522;SDS011;31254;51.680;5.394;2022-10-23T15:44:31;12.70;;;2.88;;
45522;SDS011;31254;51.680;5.394;2022-10-23T15:47:00;7.55;;;2.60;;
45522;SDS011;31254;51.680;5.394;2022-10-23T15:49:27;6.63;;;2.75;;
45522;SDS011;31254;51.680;5.394;2022-10-23T15:51:57;6.82;;;2.33;;
45522;SDS011;31254;51.680;5.394;2022-10-23T15:54:26;11.55;;;2.67;;
45522;SDS011;31254;51.680;5.394;2022-10-23T15:56:57;5.07;;;2.20;;
45522;SDS011;31254;51.680;5.394;2022-10-23T15:59:24;4.72;;;1.88;;
45522;SDS011;31254;51.680;5.394;2022-10-23T16:01:54;9.18;;;2.38;;
45522;SDS011;31254;51.680;5.394;2022-10-23T16:04:22;6.78;;;2.83;;
45522;SDS011;31254;51.680;5.394;2022-10-23T16:06:49;12.05;;;2.92;;
45522;SDS011;31254;51.680;5.394;2022-10-23T16:09:16;7.07;;;2.35;;
45522;SDS011;31254;51.680;5.394;2022-10-23T16:11:42;6.97;;;3.35;;
45522;SDS011;31254;51.680;5.394;2022-10-23T16:14:13;4.47;;;2.60;;
45522;SDS011;31254;51.680;5.394;2022-10-23T16:16:41;4.68;;;2.40;;
45522;SDS011;31254;51.680;5.394;2022-10-23T16:19:08;8.27;;;2.80;;
45522;SDS011;31254;51.680;5.394;2022-10-23T16:21:36;8.57;;;2.75;;
45522;SDS011;31254;51.680;5.394;2022-10-23T16:24:03;7.32;;;2.67;;
45522;SDS011;31254;51.680;5.394;2022-10-23T16:26:31;9.82;;;3.05;;
45522;SDS011;31254;51.680;5.394;2022-10-23T16:28:59;9.23;;;3.13;;
45522;SDS011;31254;51.680;5.394;2022-10-23T16:31:28;9.82;;;2.83;;
45522;SDS011;31254;51.680;5.394;2022-10-23T16:33:56;7.78;;;2.65;;
45522;SDS011;31254;51.680;5.394;2022-10-23T16:36:26;9.52;;;2.80;;
45522;SDS011;31254;51.680;5.394;2022-10-23T16:38:54;6.53;;;2.55;;
45522;SDS011;31254;51.680;5.394;2022-10-23T16:41:23;6.68;;;2.60;;
45522;SDS011;31254;51.680;5.394;2022-10-23T16:43:49;6.30;;;2.63;;
45522;SDS011;31254;51.680;5.394;2022-10-23T16:46:21;8.98;;;2.55;;
45522;SDS011;31254;51.680;5.394;2022-10-23T16:48:49;6.32;;;2.38;;
45522;SDS011;31254;51.680;5.394;2022-10-23T16:51:18;7.68;;;3.15;;
45522;SDS011;31254;51.680;5.394;2022-10-23T16:53:46;5.60;;;2.78;;
45522;SDS011;31254;51.680;5.394;2022-10-23T16:56:15;8.55;;;2.80;;
45522;SDS011;31254;51.680;5.394;2022-10-23T16:58:44;10.57;;;3.20;;
45522;SDS011;31254;51.680;5.394;2022-10-23T17:01:21;7.50;;;3.33;;
45522;SDS011;31254;51.680;5.394;2022-10-23T17:03:50;6.72;;;3.20;;
45522;SDS011;31254;51.680;5.394;2022-10-23T17:06:19;10.18;;;3.33;;
45522;SDS011;31254;51.680;5.394;2022-10-23T17:08:51;7.75;;;2.92;;
45522;SDS011;31254;51.680;5.394;2022-10-23T17:11:20;8.55;;;3.67;;
45522;SDS011;31254;51.680;5.394;2022-10-23T17:14:06;7.32;;;3.35;;
45522;SDS011;31254;51.680;5.394;2022-10-23T17:16:44;11.02;;;3.10;;
45522;SDS011;31254;51.680;5.394;2022-10-23T17:19:13;8.73;;;3.42;;
45522;SDS011;31254;51.680;5.394;2022-10-23T17:22:03;8.95;;;3.42;;
45522;SDS011;31254;51.680;5.394;2022-10-23T17:24:36;13.30;;;8.20;;
45522;SDS011;31254;51.680;5.394;2022-10-23T17:27:11;17.33;;;12.65;;
45522;SDS011;31254;51.680;5.394;2022-10-23T17:29:38;17.23;;;9.68;;
45522;SDS011;31254;51.680;5.394;2022-10-23T17:32:05;9.32;;;4.80;;